createdAt,value
2018-07-31T00:00:02.542Z,0
2018-07-31T00:05:02.988Z,0
2018-07-31T00:10:03.490Z,1
2018-07-31T00:15:02.954Z,1
2018-07-31T00:20:03.384Z,0
2018-07-31T00:25:02.792Z,1
2018-07-31T00:30:03.145Z,0
2018-07-31T00:35:02.556Z,0
2018-07-31T00:40:03.009Z,0
2018-07-31T00:45:03.433Z,0
2018-07-31T00:50:02.893Z,0
2018-07-31T00:55:03.283Z,0
2018-07-31T01:00:02.622Z,0
2018-07-31T01:05:03.077Z,0
2018-07-31T01:10:02.670Z,0
2018-07-31T01:15:03.084Z,0
2018-07-31T01:20:02.506Z,0
2018-07-31T01:25:02.869Z,0
2018-07-31T01:30:03.347Z,0
2018-07-31T01:35:02.784Z,0
2018-07-31T01:40:03.251Z,0
2018-07-31T01:45:02.682Z,0
2018-07-31T01:50:03.419Z,0
2018-07-31T01:55:02.801Z,0
2018-07-31T02:00:03.242Z,0
2018-07-31T02:05:02.672Z,0
2018-07-31T02:10:03.118Z,0
2018-07-31T02:15:02.611Z,0
2018-07-31T02:20:02.976Z,0
2018-07-31T02:25:03.377Z,0
2018-07-31T02:30:02.723Z,0
2018-07-31T02:35:03.149Z,0
2018-07-31T02:40:02.682Z,0
2018-07-31T02:45:03.164Z,0
2018-07-31T02:50:02.672Z,0
2018-07-31T02:55:03.072Z,0
2018-07-31T03:00:03.501Z,0
2018-07-31T03:05:02.813Z,0
2018-07-31T03:10:03.266Z,0
2018-07-31T03:15:02.696Z,0
2018-07-31T03:20:03.324Z,0
2018-07-31T03:25:02.722Z,0
2018-07-31T03:30:03.201Z,0
2018-07-31T03:35:02.790Z,0
2018-07-31T03:40:03.250Z,0
2018-07-31T03:45:02.631Z,0
2018-07-31T03:50:03.237Z,0
2018-07-31T03:55:02.856Z,0
2018-07-31T04:00:03.203Z,0
2018-07-31T04:05:02.610Z,0
2018-07-31T04:10:03.017Z,0
2018-07-31T04:15:02.482Z,0
2018-07-31T04:20:02.904Z,0
2018-07-31T04:25:03.317Z,0
2018-07-31T04:30:02.854Z,0
2018-07-31T04:35:03.473Z,0
2018-07-31T04:40:02.889Z,0
2018-07-31T04:45:03.316Z,0
2018-07-31T04:55:03.322Z,1
2018-07-31T05:00:02.762Z,0
2018-07-31T05:05:03.138Z,0
2018-07-31T05:10:02.550Z,0
2018-07-31T05:15:03.023Z,0
2018-07-31T05:20:02.504Z,0
2018-07-31T05:25:02.876Z,0
2018-07-31T05:30:03.261Z,0
2018-07-31T05:35:02.687Z,0
2018-07-31T05:40:03.176Z,0
2018-07-31T05:45:02.538Z,0
2018-07-31T05:50:03.005Z,0
2018-07-31T05:55:03.381Z,0
2018-07-31T06:00:03.009Z,0
2018-07-31T06:05:03.439Z,1
2018-07-31T06:10:02.899Z,1
2018-07-31T06:15:03.260Z,0
2018-07-31T06:20:02.733Z,0
2018-07-31T06:25:03.171Z,1
2018-07-31T06:30:02.570Z,0
2018-07-31T06:35:03.038Z,0
2018-07-31T06:40:03.508Z,1
2018-07-31T06:45:02.897Z,0
2018-07-31T06:50:03.349Z,2
2018-07-31T06:55:02.771Z,0
2018-07-31T07:00:03.160Z,0
2018-07-31T07:05:02.533Z,2
2018-07-31T07:10:03.051Z,0
2018-07-31T07:15:02.527Z,0
2018-07-31T07:20:02.954Z,2
2018-07-31T07:25:03.348Z,0
2018-07-31T07:30:02.721Z,0
2018-07-31T07:35:03.108Z,4
2018-07-31T07:40:02.545Z,3
2018-07-31T07:45:03.055Z,3
2018-07-31T07:50:02.539Z,0
2018-07-31T07:55:02.987Z,2
2018-07-31T08:00:03.419Z,0
2018-07-31T08:05:03.099Z,1
2018-07-31T08:10:02.523Z,1
2018-07-31T08:15:03.417Z,0
2018-07-31T08:20:03.040Z,0
2018-07-31T08:25:03.469Z,1
2018-07-31T08:30:02.902Z,0
2018-07-31T08:35:03.449Z,0
2018-07-31T08:40:02.820Z,0
2018-07-31T08:45:03.177Z,0
2018-07-31T08:50:02.706Z,0
2018-07-31T08:55:03.101Z,0
2018-07-31T09:00:02.528Z,2
2018-07-31T09:05:02.916Z,2
2018-07-31T09:10:03.362Z,2
2018-07-31T09:15:02.724Z,7
2018-07-31T09:20:03.229Z,4
2018-07-31T09:25:02.593Z,3
2018-07-31T09:30:02.993Z,3
2018-07-31T09:35:03.432Z,4
2018-07-31T09:40:02.889Z,0
2018-07-31T09:45:03.362Z,3
2018-07-31T09:50:02.821Z,2
2018-07-31T09:55:03.272Z,5
2018-07-31T10:00:02.658Z,8
2018-07-31T10:05:03.518Z,7
2018-07-31T10:10:03.373Z,6
2018-07-31T10:15:02.834Z,8
2018-07-31T10:20:03.206Z,6
2018-07-31T10:25:02.658Z,7
2018-07-31T10:30:03.038Z,8
2018-07-31T10:35:03.430Z,8
2018-07-31T10:40:02.847Z,7
2018-07-31T10:45:03.265Z,9
2018-07-31T10:50:02.699Z,6
2018-07-31T10:55:03.376Z,5
2018-07-31T11:00:03.640Z,10
2018-07-31T11:05:03.508Z,6
2018-07-31T11:10:02.999Z,6
2018-07-31T11:15:03.750Z,10
2018-07-31T11:20:03.234Z,7
2018-07-31T11:25:02.772Z,9
2018-07-31T11:30:03.166Z,10
2018-07-31T11:35:02.602Z,16
2018-07-31T11:40:03.138Z,9
2018-07-31T11:45:02.592Z,10
2018-07-31T11:50:03.618Z,7
2018-07-31T11:55:02.823Z,8
2018-07-31T12:00:03.225Z,11
2018-07-31T12:05:02.673Z,6
2018-07-31T12:10:03.561Z,7
2018-07-31T12:15:03.626Z,7
2018-07-31T12:20:03.083Z,9
2018-07-31T12:25:03.522Z,9
2018-07-31T12:30:02.985Z,6
2018-07-31T12:35:02.767Z,8
2018-07-31T12:40:03.286Z,7
2018-07-31T12:45:02.673Z,7
2018-07-31T12:50:03.312Z,8
2018-07-31T12:55:02.814Z,9
2018-07-31T13:00:03.600Z,8
2018-07-31T13:05:03.265Z,6
2018-07-31T13:10:02.733Z,6
2018-07-31T13:15:03.174Z,4
2018-07-31T13:20:02.612Z,7
2018-07-31T13:25:03.100Z,10
2018-07-31T13:30:02.511Z,4
2018-07-31T13:35:03.083Z,6
2018-07-31T13:40:02.525Z,6
2018-07-31T13:45:03.029Z,7
2018-07-31T13:50:02.712Z,9
2018-07-31T13:55:03.317Z,7
2018-07-31T14:00:03.011Z,6
2018-07-31T14:05:03.355Z,5
2018-07-31T14:10:02.776Z,7
2018-07-31T14:15:03.271Z,8
2018-07-31T14:20:02.897Z,6
2018-07-31T14:25:03.402Z,9
2018-07-31T14:30:02.807Z,4
2018-07-31T14:35:03.301Z,9
2018-07-31T14:40:02.840Z,4
2018-07-31T14:45:03.350Z,3
2018-07-31T14:50:02.724Z,3
2018-07-31T14:55:03.094Z,4
2018-07-31T15:00:02.764Z,4
2018-07-31T15:05:03.291Z,9
2018-07-31T15:10:02.728Z,6
2018-07-31T15:15:03.164Z,7
2018-07-31T15:20:02.646Z,6
2018-07-31T15:25:03.025Z,4
2018-07-31T15:30:03.482Z,5
2018-07-31T15:35:02.958Z,7
2018-07-31T15:40:03.387Z,8
2018-07-31T15:45:02.763Z,9
2018-07-31T15:50:03.167Z,8
2018-07-31T15:55:02.523Z,5
2018-07-31T16:00:02.988Z,9
2018-07-31T16:05:03.486Z,6
2018-07-31T16:10:03.017Z,3
2018-07-31T16:15:03.494Z,2
2018-07-31T16:20:02.897Z,4
2018-07-31T16:25:03.314Z,3
2018-07-31T16:30:02.788Z,8
2018-07-31T16:35:03.270Z,3
2018-07-31T16:40:02.694Z,9
2018-07-31T16:45:03.158Z,5
2018-07-31T16:50:02.626Z,4
2018-07-31T16:55:03.057Z,5
2018-07-31T17:00:02.523Z,3
2018-07-31T17:05:02.966Z,7
2018-07-31T17:10:03.407Z,3
2018-07-31T17:15:02.851Z,3
2018-07-31T17:20:03.257Z,4
2018-07-31T17:25:02.670Z,6
2018-07-31T17:30:03.111Z,5
2018-07-31T17:35:02.567Z,5
2018-07-31T17:40:03.053Z,8
2018-07-31T17:45:03.426Z,3
2018-07-31T17:50:02.903Z,5
2018-07-31T17:55:03.338Z,2
2018-07-31T18:00:02.761Z,5
2018-07-31T18:05:03.241Z,4
2018-07-31T18:10:02.722Z,6
2018-07-31T18:15:03.202Z,4
2018-07-31T18:20:02.622Z,5
2018-07-31T18:25:03.086Z,2
2018-07-31T18:30:02.519Z,2
2018-07-31T18:35:03.294Z,5
2018-07-31T18:40:02.982Z,3
2018-07-31T18:45:02.593Z,3
2018-07-31T18:50:03.048Z,2
2018-07-31T18:55:02.543Z,1
2018-07-31T19:00:03.028Z,4
2018-07-31T19:05:02.549Z,2
2018-07-31T19:10:03.220Z,1
2018-07-31T19:15:02.649Z,1
2018-07-31T19:20:03.144Z,0
2018-07-31T19:25:02.600Z,1
2018-07-31T19:30:03.045Z,1
2018-07-31T19:35:03.452Z,0
2018-07-31T19:40:02.917Z,0
2018-07-31T19:45:03.254Z,0
2018-07-31T19:50:02.701Z,0
2018-07-31T19:55:03.442Z,1
2018-07-31T20:00:03.454Z,0
2018-07-31T20:05:02.978Z,0
2018-07-31T20:10:03.642Z,2
2018-07-31T20:15:03.093Z,2
2018-07-31T20:20:02.585Z,1
2018-07-31T20:25:03.053Z,1
2018-07-31T20:30:02.538Z,2
2018-07-31T20:35:03.285Z,1
2018-07-31T20:40:02.720Z,0
2018-07-31T20:45:03.179Z,2
2018-07-31T20:50:02.745Z,2
2018-07-31T20:55:03.157Z,0
2018-07-31T21:00:02.814Z,1
2018-07-31T21:05:03.345Z,2
2018-07-31T21:10:02.989Z,3
2018-07-31T21:15:03.451Z,3
2018-07-31T21:20:02.828Z,3
2018-07-31T21:25:03.297Z,1
2018-07-31T21:30:03.094Z,2
2018-07-31T21:35:02.576Z,1
2018-07-31T21:40:03.043Z,2
2018-07-31T21:45:02.495Z,0
2018-07-31T21:50:03.022Z,0
2018-07-31T21:55:03.404Z,0
2018-07-31T22:00:02.844Z,0
2018-07-31T22:05:03.282Z,0
2018-07-31T22:10:02.779Z,0
2018-07-31T22:15:03.168Z,0
2018-07-31T22:20:02.646Z,0
2018-07-31T22:25:03.571Z,0
2018-07-31T22:30:03.563Z,1
2018-07-31T22:35:03.085Z,0
2018-07-31T22:40:02.487Z,0
2018-07-31T22:45:02.968Z,0
2018-07-31T22:50:03.395Z,0
2018-07-31T22:55:02.787Z,0
2018-07-31T23:00:03.191Z,0
2018-07-31T23:05:02.784Z,0
2018-07-31T23:10:03.286Z,1
2018-07-31T23:15:02.714Z,0
2018-07-31T23:20:03.216Z,0
2018-07-31T23:25:02.660Z,0
2018-07-31T23:30:03.124Z,0
2018-07-31T23:35:02.534Z,0
2018-07-31T23:40:02.979Z,0
2018-07-31T23:45:03.505Z,0
2018-07-31T23:50:02.901Z,0
2018-07-31T23:55:03.255Z,0
